Terminal Aerodrome Forecast
Issued by NWS Quad Cities IA IL

Home | Current Version | Previous Version | Text Only | Print | Product List | Glossary Off
Versions: 1 2 3 4 5 6 7 8 9 10 11 12 13 14 15 16 17 18 19 20 21 22 23 24 25 26 27 28 29 30

235
FTUS43 KDVN 300520
TAFMLI
TAF
KMLI 300520Z 3006/0106 08011KT P6SM VCSH BKN035
     FM301000 08013G20KT 6SM -RA BR BKN030
     FM301600 08018G25KT 3SM RA BR SCT009 OVC012
     FM302200 06014G22KT 5SM -SHRA BR OVC009
     FM010100 05013KT 6SM BR OVC006=

USA.gov is the U.S. government's official web portal to all federal, state and local government web resources and services.